Time;durP1;ratioP1;P1;durP2;ratioP2;P2;SDS_P1;SDS_P2;PMS_P1;PMS_P2;Temp;Humidity;BMP_temperature;BMP_pressure;BME280_temperature;BME280_humidity;BME280_pressure;Samples;Min_cycle;Max_cycle;Signal;HPM_P1;HPM_P2
2023/12/13 15:19:22;;;;;;;22.92;11.00;;;;;;;4.48;100.00;90913.66;5123248;27;20153;-80
2023/12/13 15:21:50;;;;;;;26.02;12.80;;;;;;;4.49;100.00;90920.38;5107982;28;20027;-80
2023/12/13 15:24:16;;;;;;;25.60;12.60;;;;;;;4.49;100.00;90917.00;5107638;28;20424;-83
2023/12/13 15:26:43;;;;;;;28.65;12.63;;;;;;;4.53;100.00;90915.38;5106455;28;20043;-79
2023/12/13 15:29:08;;;;;;;24.15;13.00;;;;;;;4.57;100.00;90914.53;5109188;28;20043;-81
2023/12/13 15:31:34;;;;;;;37.75;19.45;;;;;;;4.61;100.00;90924.31;5100832;28;20097;-82
2023/12/13 15:34:00;;;;;;;20.35;11.85;;;;;;;4.67;100.00;90921.34;5116724;28;20538;-80
2023/12/13 15:36:26;;;;;;;18.58;10.48;;;;;;;4.64;100.00;90924.50;5116244;28;20051;-80
2023/12/13 15:38:51;;;;;;;19.50;11.73;;;;;;;4.75;100.00;90923.28;5092110;28;20043;-82
2023/12/13 15:41:17;;;;;;;22.33;11.98;;;;;;;4.66;100.00;90925.00;5094043;28;20111;-79
2023/12/13 15:43:44;;;;;;;21.40;11.98;;;;;;;4.64;100.00;90921.91;5110014;28;20039;-80
2023/12/13 15:46:11;;;;;;;23.98;10.98;;;;;;;4.77;100.00;90923.75;5107531;28;20487;-80
2023/12/13 15:48:37;;;;;;;21.88;11.52;;;;;;;4.67;100.00;90929.13;5106885;28;20058;-79
2023/12/13 15:51:03;;;;;;;20.92;11.55;;;;;;;4.62;100.00;90924.03;5107886;28;20269;-80
2023/12/13 15:53:28;;;;;;;20.50;11.45;;;;;;;4.69;100.00;90921.81;5118884;28;20063;-81
2023/12/13 15:55:54;;;;;;;21.05;11.88;;;;;;;4.57;100.00;90926.69;5127636;28;20057;-80
2023/12/13 15:58:20;;;;;;;19.58;11.05;;;;;;;4.53;100.00;90915.38;5120592;28;20395;-82
2023/12/13 16:00:46;;;;;;;24.02;12.85;;;;;;;4.50;100.00;90921.13;5102867;28;20066;-81
2023/12/13 16:03:11;;;;;;;26.63;15.43;;;;;;;4.37;100.00;90923.44;5092643;28;20119;-81
2023/12/13 16:05:37;;;;;;;27.17;15.27;;;;;;;4.33;100.00;90925.03;5104062;28;20100;-81
2023/12/13 16:08:05;;;;;;;26.02;14.50;;;;;;;4.33;100.00;90930.22;5107452;28;20055;-81
2023/12/13 16:10:31;;;;;;;22.65;13.07;;;;;;;4.30;100.00;90933.41;5110203;28;20060;-78
2023/12/13 16:12:57;;;;;;;22.10;12.48;;;;;;;4.30;100.00;90930.81;5108547;28;20051;-79
2023/12/13 16:15:25;;;;;;;27.25;13.98;;;;;;;4.39;100.00;90936.09;5090752;28;20036;-82
2023/12/13 16:17:51;;;;;;;27.25;14.52;;;;;;;4.38;100.00;90937.91;5095911;28;20135;-80
2023/12/13 16:20:17;;;;;;;25.27;13.73;;;;;;;4.33;100.00;90943.19;5100665;28;20130;-78
2023/12/13 16:22:43;;;;;;;24.70;14.75;;;;;;;4.34;100.00;90944.72;5102146;28;20063;-79
2023/12/13 16:25:08;;;;;;;38.05;16.52;;;;;;;4.36;100.00;90949.59;5099857;28;20115;-80
2023/12/13 16:27:34;;;;;;;28.58;16.05;;;;;;;4.35;100.00;90959.22;5089774;28;20090;-81
2023/12/13 16:29:59;;;;;;;28.65;14.45;;;;;;;4.35;100.00;90955.84;5099932;28;20135;-80
2023/12/13 16:32:25;;;;;;;26.77;13.25;;;;;;;4.38;100.00;90950.84;5096577;28;20024;-80
2023/12/13 16:34:51;;;;;;;23.83;13.13;;;;;;;4.41;100.00;90956.53;5096170;28;20039;-81
2023/12/13 16:37:19;;;;;;;28.27;15.05;;;;;;;4.35;100.00;90961.03;5097312;28;20039;-81
2023/12/13 16:39:45;;;;;;;35.00;17.10;;;;;;;4.36;100.00;90973.69;5087575;28;20085;-79
2023/12/13 16:42:10;;;;;;;37.20;18.17;;;;;;;4.33;100.00;90971.69;5093314;28;20500;-79
2023/12/13 16:44:36;;;;;;;13.48;7.95;;;;;;;4.39;100.00;90972.38;5078321;28;20078;-80
2023/12/13 16:47:01;;;;;;;13.65;8.27;;;;;;;4.39;100.00;90974.97;5080508;28;20041;-82
2023/12/13 16:49:27;;;;;;;13.55;8.15;;;;;;;4.39;100.00;90982.75;5059106;28;20453;-81
2023/12/13 16:51:53;;;;;;;14.80;8.07;;;;;;;4.44;100.00;90979.28;5092146;28;20028;-78
2023/12/13 16:54:19;;;;;;;12.77;7.60;;;;;;;4.44;100.00;90989.66;5096614;28;20095;-80
2023/12/13 16:56:45;;;;;;;14.75;8.35;;;;;;;4.44;100.00;90994.84;5096168;28;20050;-79
2023/12/13 16:59:11;;;;;;;16.58;7.93;;;;;;;4.45;100.00;90996.38;5093343;28;20397;-80
2023/12/13 17:01:37;;;;;;;19.13;12.13;;;;;;;4.47;100.00;90999.44;5074394;28;20094;-80
2023/12/13 17:04:03;;;;;;;26.20;14.20;;;;;;;4.47;100.00;90994.25;5058286;28;20054;-79
2023/12/13 17:06:30;;;;;;;17.67;10.07;;;;;;;4.49;100.00;90992.16;5076793;28;20039;-79
2023/12/13 17:08:59;;;;;;;13.48;8.25;;;;;;;4.47;100.00;90992.44;5094754;28;20050;-79
2023/12/13 17:11:25;;;;;;;14.65;7.85;;;;;;;4.48;100.00;90998.38;5094439;28;20036;-80
2023/12/13 17:13:51;;;;;;;16.02;9.68;;;;;;;4.49;100.00;90994.75;5093851;28;20139;-78
2023/12/13 17:16:18;;;;;;;17.77;11.48;;;;;;;4.51;100.00;90990.06;5095734;28;20032;-80
2023/12/13 17:18:44;;;;;;;19.00;10.98;;;;;;;4.51;100.00;90997.81;5095342;28;20539;-78
2023/12/13 17:21:10;;;;;;;17.17;10.32;;;;;;;4.51;100.00;91000.41;5102955;28;20044;-79
2023/12/13 17:23:35;;;;;;;18.70;10.30;;;;;;;4.51;100.00;90998.59;5095522;28;20040;-79
2023/12/13 17:26:01;;;;;;;21.77;12.30;;;;;;;4.52;100.00;91004.53;5094631;28;20133;-79
2023/12/13 17:28:27;;;;;;;22.88;12.88;;;;;;;4.51;100.00;91001.19;5072643;28;20155;-80
2023/12/13 17:30:53;;;;;;;20.38;12.23;;;;;;;4.51;100.00;91008.19;5081728;28;20048;-78
2023/12/13 17:33:19;;;;;;;21.45;11.85;;;;;;;4.53;100.00;91025.00;5087093;28;20025;-81
2023/12/13 17:35:46;;;;;;;21.35;11.65;;;;;;;4.53;100.00;91019.03;5088699;28;20067;-82
2023/12/13 17:38:11;;;;;;;19.50;10.63;;;;;;;4.53;100.00;91014.63;5089586;28;20114;-83
2023/12/13 17:40:37;;;;;;;20.73;11.52;;;;;;;4.53;100.00;91019.03;5090538;28;20068;-80
2023/12/13 17:43:02;;;;;;;20.85;12.45;;;;;;;4.54;100.00;91023.16;5091877;28;20455;-79
2023/12/13 17:45:28;;;;;;;19.30;11.13;;;;;;;4.51;100.00;91010.78;5066199;28;20032;-81
2023/12/13 17:47:54;;;;;;;22.42;11.98;;;;;;;4.53;100.00;91021.63;5079950;28;20036;-80
2023/12/13 17:50:20;;;;;;;20.35;11.35;;;;;;;4.53;100.00;91016.47;5088987;28;20040;-81
2023/12/13 17:52:46;;;;;;;22.17;11.95;;;;;;;4.50;100.00;91015.22;5080800;28;20050;-78
2023/12/13 17:55:12;;;;;;;22.15;13.65;;;;;;;4.47;100.00;91020.16;5079442;28;20051;-80
2023/12/13 17:57:38;;;;;;;17.17;11.27;;;;;;;4.43;100.00;91019.19;5091011;28;20032;-80
2023/12/13 18:00:05;;;;;;;309.88;32.90;;;;;;;4.40;100.00;91022.38;5092236;28;20037;-82
2023/12/13 18:02:31;;;;;;;285.80;27.00;;;;;;;4.36;100.00;91024.75;5082362;28;20029;-78
2023/12/13 18:04:59;;;;;;;46.10;22.63;;;;;;;4.34;100.00;91025.00;5078220;28;20041;-82
2023/12/13 18:07:25;;;;;;;67.53;16.10;;;;;;;4.29;100.00;91019.91;5074406;28;20690;-81
2023/12/13 18:09:50;;;;;;;83.05;15.95;;;;;;;4.21;100.00;91015.41;5089037;28;20024;-81
2023/12/13 18:12:16;;;;;;;96.97;16.98;;;;;;;4.18;100.00;91019.31;5087326;28;20386;-81
2023/12/13 18:14:43;;;;;;;146.45;17.20;;;;;;;4.12;100.00;91025.63;5085939;28;20036;-81
2023/12/13 18:17:08;;;;;;;64.90;15.20;;;;;;;4.11;100.00;91028.50;5087304;28;20510;-83
2023/12/13 18:19:34;;;;;;;79.75;16.02;;;;;;;4.06;100.00;91037.09;5087659;28;20062;-81
2023/12/13 18:22:00;;;;;;;92.63;16.58;;;;;;;4.08;100.00;91035.00;5073649;28;20507;-83
2023/12/13 18:24:25;;;;;;;31.08;15.82;;;;;;;4.06;100.00;91024.16;5078473;28;20086;-84
2023/12/13 18:26:51;;;;;;;25.60;13.15;;;;;;;4.00;100.00;91016.75;5086205;28;20032;-80
2023/12/13 18:29:17;;;;;;;19.65;11.13;;;;;;;3.90;100.00;91028.03;5085239;28;20031;-81
2023/12/13 18:31:43;;;;;;;21.10;10.93;;;;;;;3.86;100.00;91029.63;5075657;28;20036;-82
2023/12/13 18:34:08;;;;;;;19.35;10.10;;;;;;;3.71;100.00;91036.53;5086200;28;20039;-81
2023/12/13 18:36:34;;;;;;;15.00;9.07;;;;;;;3.65;100.00;91042.09;5081852;28;20028;-83
2023/12/13 18:38:59;;;;;;;19.83;11.57;;;;;;;3.55;100.00;91043.72;5086505;28;20489;-80
2023/12/13 18:41:25;;;;;;;27.63;14.05;;;;;;;3.50;100.00;91030.84;5074686;28;20598;-83
2023/12/13 18:43:51;;;;;;;23.30;12.98;;;;;;;3.44;100.00;91046.72;5097555;28;20491;-83
2023/12/13 18:46:16;;;;;;;27.02;14.75;;;;;;;3.40;100.00;91037.97;5082747;28;20035;-82
2023/12/13 18:48:42;;;;;;;27.52;14.40;;;;;;;3.32;100.00;91039.34;5080278;28;20040;-82
2023/12/13 18:51:07;;;;;;;28.00;14.07;;;;;;;3.29;100.00;91047.69;5079203;28;20032;-82
2023/12/13 18:53:33;;;;;;;23.77;12.55;;;;;;;3.25;100.00;91049.28;5079679;28;20899;-80
2023/12/13 18:55:58;;;;;;;29.15;14.40;;;;;;;3.23;100.00;91051.38;5075719;28;20044;-80
2023/12/13 18:58:28;;;;;;;22.25;12.35;;;;;;;3.23;100.00;91053.94;5085557;28;20032;-81
2023/12/13 19:00:53;;;;;;;19.35;10.20;;;;;;;3.20;100.00;91057.06;5085022;28;20043;-82
2023/12/13 19:03:19;;;;;;;14.73;9.10;;;;;;;3.19;100.00;91055.53;5082237;28;21006;-83
2023/12/13 19:05:44;;;;;;;18.70;9.30;;;;;;;3.19;100.00;91061.47;5088095;28;20094;-84
2023/12/13 19:08:10;;;;;;;21.00;10.60;;;;;;;3.24;100.00;91058.84;5080016;28;20032;-84
2023/12/13 19:10:36;;;;;;;18.67;9.90;;;;;;;3.27;100.00;91060.13;5084112;28;20043;-83
2023/12/13 19:13:02;;;;;;;20.45;11.30;;;;;;;3.32;100.00;91065.22;5067136;28;20135;-79
2023/12/13 19:15:28;;;;;;;17.95;9.77;;;;;;;3.30;100.00;91056.97;5085383;28;20133;-81
2023/12/13 19:17:54;;;;;;;24.25;12.90;;;;;;;3.35;100.00;91059.50;5079427;28;20044;-82
2023/12/13 19:20:19;;;;;;;21.63;12.70;;;;;;;3.36;100.00;91061.03;5086496;28;20032;-82
2023/12/13 19:22:45;;;;;;;20.77;10.73;;;;;;;3.35;100.00;91062.06;5070118;28;20430;-83
2023/12/13 19:25:10;;;;;;;23.13;11.73;;;;;;;3.30;100.00;91054.38;5086825;28;20023;-82
2023/12/13 19:27:36;;;;;;;20.80;11.25;;;;;;;3.27;100.00;91068.63;5085932;28;20047;-81
2023/12/13 19:30:02;;;;;;;17.52;9.07;;;;;;;3.22;100.00;91081.63;5079761;28;20464;-82
2023/12/13 19:32:28;;;;;;;15.63;7.28;;;;;;;3.19;100.00;91069.25;5081871;28;20032;-81
2023/12/13 19:34:55;;;;;;;18.45;10.80;;;;;;;3.13;100.00;91070.34;5088280;28;20127;-81
2023/12/13 19:37:20;;;;;;;24.25;11.50;;;;;;;3.09;100.00;91071.94;5087238;28;20035;-83
2023/12/13 19:39:47;;;;;;;13.80;8.63;;;;;;;3.03;100.00;91078.19;5088685;28;20122;-83
2023/12/13 19:42:12;;;;;;;15.20;8.70;;;;;;;2.98;100.00;91091.94;5084243;28;20384;-82
2023/12/13 19:44:38;;;;;;;12.63;7.22;;;;;;;3.12;100.00;91087.66;5084660;28;20051;-81
2023/12/13 19:47:05;;;;;;;11.32;6.93;;;;;;;3.33;100.00;91088.25;5076570;28;20029;-83
2023/12/13 19:49:31;;;;;;;15.65;9.05;;;;;;;3.19;100.00;91094.34;5088605;28;20032;-83
2023/12/13 19:51:56;;;;;;;17.55;9.32;;;;;;;3.05;100.00;91097.56;5091828;28;20028;-81
2023/12/13 19:54:22;;;;;;;15.18;8.38;;;;;;;3.01;100.00;91098.38;5091213;28;20040;-82
2023/12/13 19:56:48;;;;;;;16.55;8.25;;;;;;;2.94;100.00;91090.94;5100467;28;20095;-83
2023/12/13 19:59:14;;;;;;;15.05;8.38;;;;;;;2.87;100.00;91090.50;5087100;28;20332;-80
2023/12/13 20:01:40;;;;;;;13.52;8.00;;;;;;;2.79;100.00;91084.13;5085592;28;20083;-81
2023/12/13 20:04:07;;;;;;;13.25;8.13;;;;;;;2.77;100.00;91095.75;5073611;28;20036;-82
2023/12/13 20:06:33;;;;;;;14.00;7.72;;;;;;;2.68;100.00;91093.78;5082580;28;20040;-80
2023/12/13 20:08:59;;;;;;;14.38;8.25;;;;;;;2.63;100.00;91103.38;5091437;28;20399;-82
2023/12/13 20:11:24;;;;;;;13.20;7.70;;;;;;;2.59;100.00;91110.91;5093637;28;20032;-83
2023/12/13 20:13:50;;;;;;;12.35;7.22;;;;;;;2.55;100.00;91115.06;5090884;28;20060;-81
2023/12/13 20:16:15;;;;;;;12.88;7.45;;;;;;;2.51;100.00;91119.22;5094881;28;20035;-82
2023/12/13 20:18:41;;;;;;;12.60;7.30;;;;;;;2.52;100.00;91120.75;5091859;28;20110;-81
2023/12/13 20:21:07;;;;;;;12.13;7.45;;;;;;;2.50;100.00;91121.03;5085732;28;20527;-83
2023/12/13 20:23:33;;;;;;;12.35;7.20;;;;;;;2.49;100.00;91116.13;5086474;28;20465;-81
2023/12/13 20:26:01;;;;;;;12.75;7.65;;;;;;;2.49;100.00;91129.81;5095598;28;20336;-80
2023/12/13 20:28:27;;;;;;;12.77;6.45;;;;;;;2.44;100.00;91129.84;5088228;28;20057;-82
2023/12/13 20:30:52;;;;;;;11.82;6.38;;;;;;;2.41;100.00;91129.63;5096953;28;20526;-82
2023/12/13 20:33:18;;;;;;;9.80;6.18;;;;;;;2.34;100.00;91123.97;5093350;28;20093;-81
2023/12/13 20:35:46;;;;;;;9.13;5.57;;;;;;;2.37;100.00;91134.56;5094567;28;20081;-84
2023/12/13 20:38:15;;;;;;;13.63;8.68;;;;;;;2.37;100.00;91138.97;5094608;28;20084;-81
2023/12/13 20:40:43;;;;;;;9.35;6.40;;;;;;;2.32;100.00;91144.94;5085317;28;20032;-82
2023/12/13 20:43:08;;;;;;;11.05;6.75;;;;;;;2.29;100.00;91153.97;5080941;28;20033;-81
2023/12/13 20:45:34;;;;;;;8.25;5.43;;;;;;;2.24;100.00;91156.59;5085991;28;20040;-82
2023/12/13 20:48:00;;;;;;;8.43;5.47;;;;;;;2.22;100.00;91157.91;5095836;28;20059;-83
2023/12/13 20:50:25;;;;;;;17.92;7.53;;;;;;;2.20;100.00;91154.81;5092261;28;20032;-83
2023/12/13 20:52:51;;;;;;;13.90;7.07;;;;;;;2.16;100.00;91154.59;5073072;28;20036;-82
2023/12/13 20:55:17;;;;;;;12.38;6.55;;;;;;;2.13;100.00;91159.50;5088776;28;20066;-82
2023/12/13 20:57:42;;;;;;;11.02;6.40;;;;;;;2.12;100.00;91163.09;5096383;28;20020;-82
2023/12/13 21:00:09;;;;;;;9.05;6.07;;;;;;;2.15;100.00;91163.34;5101686;28;20065;-83
2023/12/13 21:02:35;;;;;;;13.80;9.48;;;;;;;2.13;100.00;91167.25;5085618;28;20423;-81
2023/12/13 21:05:01;;;;;;;10.50;6.60;;;;;;;2.11;100.00;91170.06;5099313;28;20066;-82
2023/12/13 21:07:26;;;;;;;11.23;6.18;;;;;;;2.08;100.00;91170.63;5091931;28;20035;-82
2023/12/13 21:09:52;;;;;;;14.38;7.55;;;;;;;2.07;100.00;91172.44;5086997;28;20036;-81
2023/12/13 21:12:17;;;;;;;10.68;6.85;;;;;;;2.05;100.00;91176.31;5081253;28;20452;-82
2023/12/13 21:14:43;;;;;;;8.90;5.78;;;;;;;2.03;100.00;91173.22;5088380;28;20048;-82
2023/12/13 21:17:09;;;;;;;11.38;6.05;;;;;;;2.03;100.00;91180.97;5090239;28;20051;-81
2023/12/13 21:19:34;;;;;;;8.70;5.43;;;;;;;2.02;100.00;91187.94;5091486;28;20123;-82
2023/12/13 21:22:00;;;;;;;9.73;5.50;;;;;;;2.02;100.00;91185.34;5083377;28;20035;-81
2023/12/13 21:24:25;;;;;;;12.07;7.13;;;;;;;2.20;100.00;91191.72;5092320;28;20043;-80
2023/12/13 21:26:51;;;;;;;11.93;6.25;;;;;;;2.18;100.00;91198.19;5078404;28;20046;-79
2023/12/13 21:29:17;;;;;;;11.18;6.13;;;;;;;2.16;100.00;91200.25;5076630;28;20032;-81
2023/12/13 21:31:43;;;;;;;10.30;6.22;;;;;;;2.17;100.00;91207.75;5092050;28;20741;-82
2023/12/13 21:34:09;;;;;;;9.23;5.93;;;;;;;2.17;100.00;91202.59;5083587;28;20032;-82
2023/12/13 21:36:34;;;;;;;9.60;5.88;;;;;;;2.15;100.00;91207.25;5092112;28;20544;-80
2023/12/13 21:39:00;;;;;;;8.38;5.35;;;;;;;2.14;100.00;91215.25;5095717;28;20616;-80
2023/12/13 21:41:26;;;;;;;9.52;5.60;;;;;;;2.13;100.00;91211.91;5095485;28;20546;-80
2023/12/13 21:43:51;;;;;;;8.70;5.00;;;;;;;2.13;100.00;91218.88;5085106;28;20138;-82
2023/12/13 21:46:24;;;;;;;8.13;4.95;;;;;;;2.11;100.00;91216.53;5092798;28;20072;-81
2023/12/13 21:48:51;;;;;;;9.45;5.68;;;;;;;2.15;100.00;91217.56;5088389;28;20032;-81
2023/12/13 21:51:17;;;;;;;13.85;6.47;;;;;;;2.16;100.00;91221.72;5094287;28;20040;-82
2023/12/13 21:53:47;;;;;;;18.17;11.10;;;;;;;2.18;100.00;91224.78;5098968;28;20042;-81
2023/12/13 21:56:14;;;;;;;18.13;10.18;;;;;;;2.21;100.00;91234.59;5091923;28;20526;-82
2023/12/13 21:58:40;;;;;;;10.77;6.85;;;;;;;2.24;100.00;91228.88;5095208;28;20024;-81
2023/12/13 22:01:06;;;;;;;9.77;6.30;;;;;;;2.27;100.00;91225.78;5086067;28;20048;-81
2023/12/13 22:03:32;;;;;;;12.35;5.80;;;;;;;2.29;100.00;91223.69;5093283;28;20343;-82
2023/12/13 22:05:57;;;;;;;9.82;6.13;;;;;;;2.27;100.00;91225.78;5093440;28;20483;-81
2023/12/13 22:08:25;;;;;;;11.48;6.30;;;;;;;2.29;100.00;91230.66;5094002;28;20032;-82
2023/12/13 22:10:51;;;;;;;11.07;5.70;;;;;;;2.24;100.00;91231.47;5086127;28;20063;-82
2023/12/13 22:13:16;;;;;;;10.48;6.22;;;;;;;2.20;100.00;91233.03;5078197;28;20376;-81
